createdAt,value
2022-08-22T00:02:19.347Z,21.90
2022-08-22T00:02:45.442Z,24.94
2022-08-22T00:07:58.438Z,21.85
2022-08-22T00:13:08.753Z,21.69
2022-08-22T00:18:27.686Z,21.56
2022-08-22T00:23:45.958Z,21.57
2022-08-22T00:28:53.481Z,21.58
2022-08-22T00:34:24.210Z,21.55
2022-08-22T00:39:46.756Z,21.58
2022-08-22T00:45:06.674Z,21.59
2022-08-22T00:50:29.591Z,21.58
2022-08-22T00:55:43.293Z,21.61
2022-08-22T01:00:52.556Z,21.59
2022-08-22T01:06:27.119Z,21.36
2022-08-22T01:11:49.954Z,21.42
2022-08-22T01:17:21.270Z,21.34
2022-08-22T01:22:48.938Z,21.34
2022-08-22T01:28:10.058Z,21.37
2022-08-22T01:33:50.233Z,21.39
2022-08-22T01:39:00.858Z,21.40
2022-08-22T01:44:10.250Z,21.40
2022-08-22T01:49:22.965Z,21.43
2022-08-22T01:54:33.391Z,21.41
2022-08-22T01:59:45.979Z,21.36
2022-08-22T02:04:59.699Z,21.33
2022-08-22T02:10:42.031Z,21.26
2022-08-22T02:15:54.376Z,21.24
2022-08-22T02:21:34.179Z,21.19
2022-08-22T02:26:51.281Z,21.16
2022-08-22T02:32:00.855Z,21.11
2022-08-22T02:37:05.227Z,21.11
2022-08-22T02:42:48.805Z,21.10
2022-08-22T02:48:00.589Z,21.04
2022-08-22T02:53:17.250Z,20.93
2022-08-22T02:58:42.758Z,20.95
2022-08-22T03:03:47.478Z,20.77
2022-08-22T03:09:16.254Z,20.82
2022-08-22T03:14:29.186Z,20.77
2022-08-22T03:19:47.702Z,20.76
2022-08-22T03:25:23.748Z,20.79
2022-08-22T03:30:44.165Z,20.67
2022-08-22T03:35:45.443Z,20.77
2022-08-22T03:41:01.826Z,20.73
2022-08-22T03:46:42.130Z,20.67
2022-08-22T03:51:54.546Z,20.65
2022-08-22T03:57:20.956Z,20.65
2022-08-22T04:02:43.578Z,20.65
2022-08-22T04:08:04.370Z,20.64
2022-08-22T04:13:14.836Z,20.65
2022-08-22T04:18:40.344Z,20.64
2022-08-22T04:23:47.758Z,20.59
2022-08-22T04:28:57.074Z,20.55
2022-08-22T04:34:10.422Z,20.46
2022-08-22T04:39:21.391Z,20.53
2022-08-22T04:44:28.169Z,20.49
2022-08-22T04:49:38.823Z,20.38
2022-08-22T04:55:08.251Z,20.30
2022-08-22T05:00:11.773Z,20.23
2022-08-22T05:05:15.576Z,20.18
2022-08-22T05:10:18.850Z,20.11
2022-08-22T05:15:27.415Z,20.10
2022-08-22T05:20:30.164Z,20.09
2022-08-22T05:25:36.432Z,20.11
2022-08-22T05:30:39.292Z,20.12
2022-08-22T05:35:57.204Z,20.17
2022-08-22T05:41:05.635Z,20.15
2022-08-22T05:46:16.689Z,20.09
2022-08-22T05:51:24.787Z,20.16
2022-08-22T05:56:50.133Z,20.20
2022-08-22T06:02:04.806Z,20.32
2022-08-22T06:07:14.620Z,20.45
2022-08-22T06:12:25.949Z,20.69
2022-08-22T06:17:37.349Z,20.86
2022-08-22T06:22:49.024Z,21.03
2022-08-22T06:27:51.387Z,21.20
2022-08-22T06:32:59.465Z,21.50
2022-08-22T06:38:02.835Z,21.80
2022-08-22T06:43:05.374Z,21.89
2022-08-22T06:48:07.250Z,22.36
2022-08-22T06:53:18.147Z,22.52
2022-08-22T06:58:30.994Z,22.59
2022-08-22T07:03:40.847Z,22.60
2022-08-22T07:08:42.565Z,22.67
2022-08-22T07:13:53.716Z,22.69
2022-08-22T07:18:55.074Z,22.78
2022-08-22T07:24:00.854Z,23.04
2022-08-22T07:29:10.734Z,23.40
2022-08-22T07:34:25.586Z,23.69
2022-08-22T07:39:37.563Z,23.91
2022-08-22T07:44:54.307Z,23.96
2022-08-22T07:50:04.291Z,23.84
2022-08-22T07:55:08.752Z,24.03
2022-08-22T08:00:18.239Z,24.24
2022-08-22T08:05:24.648Z,24.50
2022-08-22T08:10:31.253Z,24.56
2022-08-22T08:15:36.020Z,24.47
2022-08-22T08:20:37.927Z,24.42
2022-08-22T08:26:02.250Z,24.48
2022-08-22T08:31:07.532Z,24.99
2022-08-22T08:36:36.707Z,25.18
2022-08-22T08:42:09.673Z,25.39
2022-08-22T08:47:26.158Z,26.05
2022-08-22T08:52:54.397Z,25.97
2022-08-22T08:58:06.732Z,26.19
2022-08-22T09:03:15.895Z,26.79
2022-08-22T09:08:58.213Z,27.25
2022-08-22T09:14:27.497Z,27.55
2022-08-22T09:19:48.029Z,27.93
2022-08-22T09:25:15.178Z,28.12
2022-08-22T09:30:19.833Z,28.33
2022-08-22T09:35:55.785Z,28.73
2022-08-22T09:41:20.223Z,29.03
2022-08-22T09:46:36.784Z,29.51
2022-08-22T09:51:45.187Z,29.85
2022-08-22T09:57:05.072Z,30.18
2022-08-22T10:02:16.874Z,30.43
2022-08-22T10:07:30.368Z,30.49
2022-08-22T10:12:59.399Z,31.16
2022-08-22T10:18:10.613Z,31.50
2022-08-22T10:23:21.334Z,32.63
2022-08-22T10:28:58.065Z,36.60
2022-08-22T10:34:11.770Z,39.13
2022-08-22T10:39:22.603Z,37.48
2022-08-22T10:44:37.647Z,35.77
2022-08-22T10:49:57.321Z,35.67
2022-08-22T10:55:09.920Z,39.49
2022-08-22T11:00:50.046Z,43.40
2022-08-22T11:05:57.416Z,38.80
2022-08-22T11:11:07.189Z,36.95
2022-08-22T11:16:19.373Z,38.89
2022-08-22T11:21:46.052Z,38.53
2022-08-22T11:26:57.621Z,36.29
2022-08-22T11:32:22.946Z,34.09
2022-08-22T11:37:56.847Z,36.29
2022-08-22T11:43:32.610Z,40.56
2022-08-22T11:49:06.703Z,43.95
2022-08-22T11:54:31.238Z,45.08
2022-08-22T11:59:56.134Z,43.31
2022-08-22T12:05:06.641Z,40.05
2022-08-22T12:10:15.039Z,38.88
2022-08-22T12:15:22.571Z,37.72
2022-08-22T12:20:41.218Z,37.38
2022-08-22T12:26:29.342Z,36.73
2022-08-22T12:31:46.959Z,36.61
2022-08-22T12:37:03.403Z,36.46
2022-08-22T12:42:40.331Z,36.25
2022-08-22T12:48:14.688Z,36.12
2022-08-22T12:53:24.835Z,36.09
2022-08-22T12:59:02.352Z,35.43
2022-08-22T13:04:12.487Z,35.46
2022-08-22T13:09:37.153Z,35.30
2022-08-22T13:14:38.804Z,35.00
2022-08-22T13:19:55.588Z,34.50
2022-08-22T13:25:05.469Z,34.13
2022-08-22T13:30:37.677Z,34.29
2022-08-22T13:36:01.072Z,34.03
2022-08-22T13:41:03.706Z,34.03
2022-08-22T13:46:10.852Z,34.01
2022-08-22T13:51:22.376Z,33.47
2022-08-22T13:56:30.380Z,33.15
2022-08-22T14:01:32.065Z,33.20
2022-08-22T14:06:45.754Z,33.02
2022-08-22T14:11:53.566Z,32.94
2022-08-22T14:16:58.380Z,32.92
2022-08-22T14:22:15.919Z,32.77
2022-08-22T14:27:30.390Z,32.55
2022-08-22T14:32:36.735Z,32.29
2022-08-22T14:37:45.661Z,32.21
2022-08-22T14:42:56.390Z,31.95
2022-08-22T14:48:30.469Z,31.71
2022-08-22T14:53:31.684Z,31.55
2022-08-22T14:58:45.417Z,31.37
2022-08-22T15:04:05.720Z,31.25
2022-08-22T15:09:56.801Z,31.08
2022-08-22T15:15:05.920Z,30.89
2022-08-22T15:20:11.197Z,30.67
2022-08-22T15:25:19.358Z,30.80
2022-08-22T15:30:44.252Z,30.82
2022-08-22T15:35:46.983Z,30.72
2022-08-22T15:40:49.845Z,30.55
2022-08-22T15:46:09.903Z,30.38
2022-08-22T15:51:32.621Z,30.18
2022-08-22T15:56:38.971Z,29.99
2022-08-22T16:01:51.437Z,29.82
2022-08-22T16:06:57.982Z,29.75
2022-08-22T16:12:04.068Z,29.59
2022-08-22T16:17:28.391Z,29.58
2022-08-22T16:22:59.445Z,29.59
2022-08-22T16:28:01.211Z,29.55
2022-08-22T16:33:04.430Z,29.47
2022-08-22T16:38:05.850Z,29.41
2022-08-22T16:43:15.235Z,29.33
2022-08-22T16:48:34.494Z,29.18
2022-08-22T16:53:38.925Z,29.06
2022-08-22T16:59:00.879Z,28.88
2022-08-22T17:04:39.365Z,28.81
2022-08-22T17:09:58.965Z,28.70
2022-08-22T17:15:18.643Z,28.57
2022-08-22T17:20:43.884Z,28.53
2022-08-22T17:26:12.748Z,28.47
2022-08-22T17:31:24.069Z,28.39
2022-08-22T17:36:53.037Z,28.32
2022-08-22T17:42:00.661Z,28.25
2022-08-22T17:47:19.579Z,28.21
2022-08-22T17:52:47.105Z,28.11
2022-08-22T17:58:06.569Z,28.02
2022-08-22T18:03:24.445Z,27.93
2022-08-22T18:14:11.658Z,27.59
2022-08-22T18:19:37.602Z,27.56
2022-08-22T18:24:55.275Z,27.44
2022-08-22T18:30:12.065Z,27.30
2022-08-22T18:35:22.774Z,27.15
2022-08-22T18:40:25.248Z,27.05
2022-08-22T18:45:45.525Z,26.91
2022-08-22T18:50:48.484Z,26.76
2022-08-22T18:56:00.360Z,26.70
2022-08-22T19:01:37.478Z,26.61
2022-08-22T19:07:05.341Z,26.50
2022-08-22T19:12:31.683Z,26.40
2022-08-22T19:18:01.608Z,26.29
2022-08-22T19:23:37.550Z,26.23
2022-08-22T19:28:39.122Z,26.10
2022-08-22T19:33:46.878Z,26.05
2022-08-22T19:38:53.694Z,25.99
2022-08-22T19:43:55.265Z,25.94
2022-08-22T19:48:56.800Z,25.83
2022-08-22T19:54:00.999Z,25.81
2022-08-22T19:59:12.213Z,25.75
2022-08-22T20:04:44.452Z,25.71
2022-08-22T20:10:19.224Z,25.64
2022-08-22T20:15:23.986Z,25.71
2022-08-22T20:20:35.453Z,25.73
2022-08-22T20:25:49.310Z,25.63
2022-08-22T20:30:57.832Z,25.62
2022-08-22T20:36:05.124Z,25.62
2022-08-22T20:41:39.495Z,25.59
2022-08-22T20:46:46.803Z,25.53
2022-08-22T20:52:08.502Z,25.43
2022-08-22T20:57:19.240Z,25.44
2022-08-22T21:02:24.832Z,25.41
2022-08-22T21:07:28.310Z,25.38
2022-08-22T21:12:29.645Z,25.37
2022-08-22T21:17:34.315Z,25.23
2022-08-22T21:22:37.149Z,25.21
2022-08-22T21:27:38.647Z,25.18
2022-08-22T21:32:42.971Z,25.11
2022-08-22T21:37:45.809Z,24.78
2022-08-22T21:43:06.637Z,24.60
2022-08-22T21:48:38.754Z,24.58
2022-08-22T21:53:40.659Z,24.47
2022-08-22T21:58:42.650Z,24.45
2022-08-22T22:03:44.050Z,24.41
2022-08-22T22:08:46.398Z,24.35
2022-08-22T22:13:47.890Z,24.19
2022-08-22T22:18:49.278Z,24.05
2022-08-22T22:23:50.699Z,24.03
2022-08-22T22:28:52.918Z,24.00
2022-08-22T22:33:54.360Z,23.95
2022-08-22T22:38:55.717Z,23.96
2022-08-22T22:43:57.282Z,23.95
2022-08-22T22:48:58.682Z,23.80
2022-08-22T22:54:00.140Z,23.79
2022-08-22T22:59:13.115Z,23.73
2022-08-22T23:04:15.044Z,23.60
2022-08-22T23:09:16.382Z,23.53
2022-08-22T23:14:19.605Z,23.52
2022-08-22T23:19:21.142Z,23.39
2022-08-22T23:24:23.989Z,23.36
2022-08-22T23:29:26.369Z,23.29
2022-08-22T23:34:31.310Z,23.33
2022-08-22T23:39:33.370Z,23.36
2022-08-22T23:44:37.277Z,23.32
2022-08-22T23:49:40.220Z,23.27
2022-08-22T23:54:41.705Z,23.23
2022-08-22T23:59:48.576Z,23.23
